createdAt,value
2022-11-29T00:02:59.582Z,33.03
2022-11-29T00:08:01.442Z,31.70
2022-11-29T00:13:03.280Z,34.78
2022-11-29T00:18:06.556Z,35.80
2022-11-29T00:23:08.373Z,35.55
2022-11-29T00:28:10.180Z,30.83
2022-11-29T00:33:11.828Z,29.63
2022-11-29T00:38:13.522Z,32.88
2022-11-29T00:43:15.194Z,26.75
2022-11-29T00:48:17.171Z,26.40
2022-11-29T00:53:19.031Z,26.93
2022-11-29T00:58:21.361Z,23.15
2022-11-29T01:03:23.988Z,32.55
2022-11-29T01:08:25.638Z,27.02
2022-11-29T01:13:27.349Z,33.03
2022-11-29T01:18:30.452Z,28.90
2022-11-29T01:23:32.535Z,23.38
2022-11-29T01:28:37.872Z,21.90
2022-11-29T01:33:40.269Z,28.33
2022-11-29T01:38:45.041Z,27.42
2022-11-29T01:43:58.868Z,28.30
2022-11-29T01:49:07.509Z,21.25
2022-11-29T01:54:10.942Z,31.70
2022-11-29T01:59:17.040Z,28.90
2022-11-29T02:04:25.594Z,25.40
2022-11-29T02:09:27.493Z,27.83
2022-11-29T02:14:39.132Z,31.53
2022-11-29T02:20:18.868Z,24.05
2022-11-29T02:25:28.132Z,26.33
2022-11-29T02:31:03.181Z,23.42
2022-11-29T02:36:14.185Z,32.28
2022-11-29T02:41:46.005Z,27.25
2022-11-29T02:47:15.814Z,27.95
2022-11-29T02:52:37.758Z,27.73
2022-11-29T02:57:50.063Z,30.15
2022-11-29T03:02:51.889Z,28.83
2022-11-29T03:08:15.478Z,32.85
2022-11-29T03:13:25.224Z,35.65
2022-11-29T03:18:38.646Z,36.38
2022-11-29T03:23:45.801Z,31.95
2022-11-29T03:29:01.166Z,36.03
2022-11-29T03:34:45.090Z,33.80
2022-11-29T03:39:57.399Z,36.20
2022-11-29T03:45:07.869Z,31.67
2022-11-29T03:50:16.484Z,31.77
2022-11-29T03:56:04.416Z,34.10
2022-11-29T04:01:20.877Z,38.40
2022-11-29T04:06:46.312Z,33.13
2022-11-29T04:11:58.760Z,35.28
2022-11-29T04:17:25.377Z,31.10
2022-11-29T04:22:43.326Z,27.77
2022-11-29T04:28:27.890Z,29.80
2022-11-29T04:33:38.577Z,32.92
2022-11-29T04:38:53.574Z,29.00
2022-11-29T04:44:20.143Z,25.33
2022-11-29T04:49:33.954Z,29.40
2022-11-29T04:54:59.055Z,29.63
2022-11-29T05:00:10.677Z,33.60
2022-11-29T05:05:27.646Z,35.22
2022-11-29T05:10:59.678Z,33.15
2022-11-29T05:16:28.826Z,32.15
2022-11-29T05:21:55.228Z,37.05
2022-11-29T05:27:29.355Z,31.48
2022-11-29T05:32:57.789Z,35.50
2022-11-29T05:38:15.169Z,32.92
2022-11-29T05:43:22.650Z,32.63
2022-11-29T05:48:36.611Z,28.75
2022-11-29T05:53:51.486Z,29.77
2022-11-29T05:59:05.632Z,31.70
2022-11-29T06:04:17.758Z,43.97
2022-11-29T06:09:33.838Z,36.83
2022-11-29T06:14:57.209Z,43.58
2022-11-29T06:20:13.025Z,18.77
2022-11-29T06:25:30.749Z,20.65
2022-11-29T06:31:04.520Z,24.33
2022-11-29T06:36:12.596Z,21.98
2022-11-29T06:41:21.641Z,25.05
2022-11-29T06:46:35.672Z,29.30
2022-11-29T06:51:48.908Z,34.70
2022-11-29T07:02:10.756Z,34.65
2022-11-29T07:07:15.615Z,47.50
2022-11-29T07:12:18.319Z,35.20
2022-11-29T07:17:30.915Z,36.92
2022-11-29T07:22:44.266Z,40.75
2022-11-29T07:28:16.146Z,38.35
2022-11-29T07:33:53.774Z,40.55
2022-11-29T07:39:19.192Z,34.40
2022-11-29T07:44:44.818Z,38.58
2022-11-29T07:49:46.757Z,38.58
2022-11-29T07:54:48.637Z,41.13
2022-11-29T07:59:50.259Z,35.88
2022-11-29T08:04:52.048Z,42.15
2022-11-29T08:09:53.878Z,42.63
2022-11-29T08:14:55.512Z,38.40
2022-11-29T08:20:00.021Z,43.97
2022-11-29T08:25:07.124Z,38.97
2022-11-29T08:30:09.166Z,35.65
2022-11-29T08:35:10.893Z,37.53
2022-11-29T08:40:13.853Z,46.47
2022-11-29T08:45:15.993Z,45.25
2022-11-29T08:50:18.202Z,45.00
2022-11-29T08:55:23.145Z,44.60
2022-11-29T09:00:25.047Z,42.53
2022-11-29T09:05:26.740Z,44.08
2022-11-29T09:10:28.433Z,43.63
2022-11-29T09:15:30.104Z,44.35
2022-11-29T09:20:32.767Z,40.88
2022-11-29T09:25:34.573Z,40.75
2022-11-29T09:30:37.998Z,40.90
2022-11-29T09:35:39.741Z,44.42
2022-11-29T09:40:51.799Z,41.05
2022-11-29T09:46:23.315Z,42.03
2022-11-29T09:51:52.848Z,44.08
2022-11-29T09:56:56.745Z,37.92
2022-11-29T10:02:08.937Z,37.08
2022-11-29T10:07:22.143Z,45.17
2022-11-29T10:12:30.513Z,39.65
2022-11-29T10:18:22.049Z,39.25
2022-11-29T10:23:31.187Z,38.30
2022-11-29T10:28:34.858Z,40.15
2022-11-29T10:33:41.176Z,39.33
2022-11-29T10:38:46.019Z,42.25
2022-11-29T10:43:50.373Z,40.70
2022-11-29T10:48:52.938Z,41.53
2022-11-29T10:53:56.155Z,40.53
2022-11-29T10:59:05.207Z,38.03
2022-11-29T11:04:14.054Z,45.05
2022-11-29T11:09:34.410Z,36.60
2022-11-29T11:14:38.684Z,35.70
2022-11-29T11:19:40.508Z,40.42
2022-11-29T11:24:44.584Z,37.33
2022-11-29T11:29:46.549Z,38.17
2022-11-29T11:34:56.130Z,37.85
2022-11-29T11:40:00.972Z,38.38
2022-11-29T11:45:25.863Z,34.72
2022-11-29T11:50:31.395Z,36.65
2022-11-29T11:55:43.174Z,34.38
2022-11-29T12:01:05.700Z,33.42
2022-11-29T12:06:28.736Z,31.55
2022-11-29T12:11:42.180Z,33.50
2022-11-29T12:16:47.201Z,30.88
2022-11-29T12:21:55.814Z,31.33
2022-11-29T12:27:04.928Z,33.10
2022-11-29T12:32:17.283Z,33.45
2022-11-29T12:37:40.358Z,31.50
2022-11-29T12:42:59.505Z,31.50
2022-11-29T12:48:20.048Z,30.08
2022-11-29T12:53:27.069Z,35.53
2022-11-29T12:58:51.866Z,36.65
2022-11-29T13:04:09.407Z,41.00
2022-11-29T13:09:17.058Z,37.92
2022-11-29T13:14:42.721Z,36.65
2022-11-29T13:19:53.409Z,40.35
2022-11-29T13:25:01.070Z,36.72
2022-11-29T13:30:04.813Z,42.17
2022-11-29T13:35:19.995Z,40.80
2022-11-29T13:40:30.279Z,37.58
2022-11-29T13:45:42.139Z,27.85
2022-11-29T13:50:45.180Z,33.43
2022-11-29T14:00:52.064Z,33.15
2022-11-29T14:06:14.595Z,34.88
2022-11-29T14:11:16.269Z,27.98
2022-11-29T14:16:36.310Z,30.02
2022-11-29T14:22:02.946Z,26.58
2022-11-29T14:27:07.645Z,31.63
2022-11-29T14:32:22.536Z,28.20
2022-11-29T14:37:31.769Z,31.98
2022-11-29T14:42:33.595Z,36.50
2022-11-29T14:47:48.660Z,34.65
2022-11-29T14:52:51.511Z,40.63
2022-11-29T15:03:01.642Z,44.50
2022-11-29T15:08:17.393Z,40.20
2022-11-29T15:13:28.450Z,44.20
2022-11-29T15:19:03.054Z,42.33
2022-11-29T15:24:14.192Z,39.05
2022-11-29T15:29:19.442Z,47.42
2022-11-29T15:34:38.075Z,43.22
2022-11-29T15:39:40.143Z,47.50
2022-11-29T15:44:46.066Z,41.40
2022-11-29T15:49:48.877Z,43.13
2022-11-29T15:54:56.479Z,40.67
2022-11-29T16:00:02.219Z,47.63
2022-11-29T16:05:24.873Z,41.03
2022-11-29T16:10:36.230Z,48.03
2022-11-29T16:15:39.468Z,51.58
2022-11-29T16:20:42.903Z,49.15
2022-11-29T16:25:48.780Z,46.05
2022-11-29T16:30:50.532Z,41.08
2022-11-29T16:36:06.552Z,47.70
2022-11-29T16:41:23.048Z,43.33
2022-11-29T16:46:27.376Z,42.80
2022-11-29T16:51:48.141Z,48.85
2022-11-29T16:56:52.119Z,47.70
2022-11-29T17:01:54.084Z,46.95
2022-11-29T17:06:56.666Z,50.27
2022-11-29T17:12:01.500Z,50.63
2022-11-29T17:17:03.400Z,44.75
2022-11-29T17:22:05.248Z,47.10
2022-11-29T17:27:06.990Z,52.37
2022-11-29T17:32:08.779Z,44.95
2022-11-29T17:37:10.659Z,49.35
2022-11-29T17:42:12.563Z,51.00
2022-11-29T17:47:14.421Z,50.47
2022-11-29T17:52:16.224Z,50.28
2022-11-29T17:57:18.292Z,47.60
2022-11-29T18:02:20.228Z,52.90
2022-11-29T18:07:22.213Z,35.90
2022-11-29T18:12:24.314Z,37.15
2022-11-29T18:17:26.004Z,38.80
2022-11-29T18:22:27.664Z,42.05
2022-11-29T18:27:30.584Z,42.67
2022-11-29T18:32:33.162Z,49.72
2022-11-29T18:38:12.954Z,44.13
2022-11-29T18:42:56.517Z,40.92
2022-11-29T18:47:58.598Z,49.80
2022-11-29T18:53:00.376Z,44.80
2022-11-29T18:58:02.360Z,55.65
2022-11-29T19:03:04.165Z,54.40
2022-11-29T19:08:05.863Z,55.03
2022-11-29T19:13:07.876Z,60.28
2022-11-29T19:18:09.619Z,50.83
2022-11-29T19:23:11.457Z,48.70
2022-11-29T19:28:14.361Z,53.58
2022-11-29T19:33:16.303Z,51.22
2022-11-29T19:38:18.171Z,65.97
2022-11-29T19:43:20.179Z,57.93
2022-11-29T19:48:21.942Z,69.35
2022-11-29T19:53:23.642Z,58.85
2022-11-29T19:58:25.395Z,52.05
2022-11-29T20:03:29.787Z,59.00
2022-11-29T20:08:32.377Z,55.13
2022-11-29T20:13:34.109Z,58.40
2022-11-29T20:18:39.219Z,47.60
2022-11-29T20:23:42.193Z,48.55
2022-11-29T20:28:44.743Z,45.58
2022-11-29T20:33:48.262Z,54.83
2022-11-29T20:38:55.926Z,41.15
2022-11-29T20:44:01.585Z,44.42
2022-11-29T20:49:06.695Z,70.68
2022-11-29T20:54:11.070Z,52.42
2022-11-29T20:59:12.807Z,46.70
2022-11-29T21:04:17.717Z,47.28
2022-11-29T21:09:21.872Z,46.65
2022-11-29T21:14:24.358Z,46.53
2022-11-29T21:19:26.860Z,45.00
2022-11-29T21:25:02.563Z,50.67
2022-11-29T21:30:06.211Z,44.65
2022-11-29T21:35:08.098Z,44.10
2022-11-29T21:40:12.196Z,49.67
2022-11-29T21:45:15.778Z,49.92
2022-11-29T21:50:17.928Z,44.88
2022-11-29T21:55:19.825Z,47.37
2022-11-29T22:00:21.712Z,44.83
2022-11-29T22:05:23.368Z,49.07
2022-11-29T22:10:25.094Z,57.13
2022-11-29T22:15:27.378Z,45.28
2022-11-29T22:20:29.112Z,46.58
2022-11-29T22:25:30.840Z,54.42
2022-11-29T22:30:32.623Z,53.67
2022-11-29T22:35:34.304Z,44.75
2022-11-29T22:40:36.078Z,45.45
2022-11-29T22:45:37.797Z,49.05
2022-11-29T22:50:39.523Z,49.85
2022-11-29T22:55:41.220Z,42.05
2022-11-29T23:00:44.023Z,51.10
2022-11-29T23:05:45.884Z,48.28
2022-11-29T23:10:58.122Z,50.65
2022-11-29T23:16:01.193Z,51.57
2022-11-29T23:21:21.407Z,50.45
2022-11-29T23:26:29.411Z,51.10
2022-11-29T23:31:31.662Z,53.63
2022-11-29T23:36:33.647Z,50.13
2022-11-29T23:41:38.537Z,50.13
2022-11-29T23:46:40.314Z,53.10
2022-11-29T23:51:41.953Z,48.20
2022-11-29T23:56:43.574Z,46.58
